Wetterdaten: Mittwoch, 15.07.2015
Datum Zeit Auen-Temp. Temp gefhlt Luftfeuchte Luftdruck Regen Wind Richtung Richtung Taupunkt Windben
15.07.2015 00:00 14,8 C 14,7 C 80 % 1015,2 hPa 0,0 mm 0,3 km/h (0 Bft) N-NO 22 11,4 C 0,0 km/h (0 Bft)
15.07.2015 00:05 14,9 C 14,9 C 78 % 1015,2 hPa 0,0 mm 0,8 km/h (0 Bft) O-NO 67 11,1 C 0,0 km/h (0 Bft)
15.07.2015 00:10 15,1 C 15,0 C 81 % 1015,4 hPa 0,0 mm 1,6 km/h (1 Bft) S-SO 157 11,9 C 3,6 km/h (1 Bft)
15.07.2015 00:15 15,2 C 15,4 C 79 % 1015,4 hPa 0,0 mm 2,1 km/h (1 Bft) O-NO 67 11,6 C 0,0 km/h (0 Bft)
15.07.2015 00:20 15,6 C 15,7 C 79 % 1015,4 hPa 0,0 mm 3,4 km/h (1 Bft) SO 135 12,0 C 6,0 km/h (2 Bft)
15.07.2015 00:25 15,6 C 16,1 C 79 % 1015,4 hPa 0,0 mm 4,7 km/h (1 Bft) SO 135 12,0 C 7,0 km/h (2 Bft)
15.07.2015 00:30 15,6 C 16,1 C 79 % 1015,4 hPa 0,0 mm 5,2 km/h (1 Bft) S-SO 157 12,0 C 7,8 km/h (2 Bft)
15.07.2015 00:35 15,7 C 16,1 C 79 % 1015,4 hPa 0,0 mm 4,4 km/h (1 Bft) S-SO 157 12,1 C 4,4 km/h (1 Bft)
15.07.2015 00:40 15,6 C 16,0 C 78 % 1015,4 hPa 0,0 mm 3,4 km/h (1 Bft) S 180 11,8 C 3,9 km/h (1 Bft)
15.07.2015 00:45 15,6 C 15,9 C 78 % 1015,4 hPa 0,0 mm 2,6 km/h (1 Bft) S-SO 157 11,8 C 4,4 km/h (1 Bft)
15.07.2015 00:50 15,6 C 15,9 C 78 % 1015,6 hPa 0,0 mm 2,6 km/h (1 Bft) S-SO 157 11,8 C 3,4 km/h (1 Bft)
15.07.2015 00:55 15,6 C 15,7 C 78 % 1015,6 hPa 0,0 mm 2,8 km/h (1 Bft) SO 135 11,8 C 2,8 km/h (1 Bft)
15.07.2015 01:00 15,6 C 15,6 C 78 % 1015,6 hPa 0,0 mm 1,6 km/h (1 Bft) SO 135 11,8 C 0,0 km/h (0 Bft)
15.07.2015 01:05 15,5 C 15,5 C 78 % 1015,6 hPa 0,0 mm 0,5 km/h (0 Bft) S-SO 157 11,7 C 0,0 km/h (0 Bft)
15.07.2015 01:10 15,1 C 15,2 C 78 % 1015,5 hPa 0,0 mm 0,0 km/h (0 Bft) SO 135 11,3 C 0,0 km/h (0 Bft)
15.07.2015 01:15 15,2 C 15,2 C 79 % 1015,5 hPa 0,0 mm 0,0 km/h (0 Bft) SO 135 11,6 C 0,0 km/h (0 Bft)
15.07.2015 01:20 15,1 C 15,1 C 79 % 1015,5 hPa 0,0 mm 0,0 km/h (0 Bft) S 180 11,5 C 0,0 km/h (0 Bft)
15.07.2015 01:25 15,1 C 15,2 C 79 % 1015,5 hPa 0,0 mm 0,0 km/h (0 Bft) SO 135 11,5 C 0,0 km/h (0 Bft)
15.07.2015 01:30 15,2 C 15,2 C 79 % 1015,5 hPa 0,0 mm 0,8 km/h (0 Bft) S-SO 157 11,6 C 0,0 km/h (0 Bft)
15.07.2015 01:35 15,3 C 15,3 C 79 % 1015,5 hPa 0,0 mm 2,1 km/h (1 Bft) SO 135 11,7 C 3,4 km/h (1 Bft)
15.07.2015 01:40 15,3 C 15,4 C 79 % 1015,5 hPa 0,0 mm 1,8 km/h (1 Bft) S-SO 157 11,7 C 0,0 km/h (0 Bft)
15.07.2015 01:45 15,3 C 15,3 C 79 % 1015,5 hPa 0,0 mm 1,0 km/h (0 Bft) S-SO 157 11,7 C 0,0 km/h (0 Bft)
15.07.2015 01:50 15,3 C 15,3 C 79 % 1015,3 hPa 0,0 mm 0,8 km/h (0 Bft) S 180 11,7 C 2,6 km/h (1 Bft)
15.07.2015 01:55 15,2 C 15,2 C 80 % 1015,3 hPa 0,0 mm 0,5 km/h (0 Bft) S-SO 157 11,8 C 0,0 km/h (0 Bft)
15.07.2015 02:00 15,0 C 15,0 C 80 % 1015,3 hPa 0,0 mm 0,5 km/h (0 Bft) SO 135 11,6 C 0,0 km/h (0 Bft)
15.07.2015 02:05 15,0 C 15,0 C 79 % 1015,3 hPa 0,0 mm 0,5 km/h (0 Bft) SO 135 11,4 C 0,0 km/h (0 Bft)
15.07.2015 02:10 14,9 C 14,9 C 80 % 1015,3 hPa 0,0 mm 0,8 km/h (0 Bft) S 180 11,5 C 2,8 km/h (1 Bft)
15.07.2015 02:15 14,9 C 14,9 C 80 % 1015,3 hPa 0,0 mm 1,6 km/h (1 Bft) S-SO 157 11,5 C 3,1 km/h (1 Bft)
15.07.2015 02:20 14,9 C 14,8 C 81 % 1015,3 hPa 0,0 mm 1,8 km/h (1 Bft) S 180 11,7 C 8,3 km/h (2 Bft)
15.07.2015 02:25 15,0 C 15,0 C 80 % 1015,3 hPa 0,0 mm 1,8 km/h (1 Bft) S-SO 157 11,6 C 0,0 km/h (0 Bft)
15.07.2015 02:30 15,1 C 15,0 C 81 % 1015,2 hPa 0,0 mm 2,1 km/h (1 Bft) SO 135 11,9 C 0,0 km/h (0 Bft)
15.07.2015 02:35 15,0 C 15,0 C 79 % 1015,2 hPa 0,0 mm 1,3 km/h (1 Bft) S-SO 157 11,4 C 3,1 km/h (1 Bft)
15.07.2015 02:40 15,1 C 15,1 C 79 % 1015,2 hPa 0,0 mm 2,1 km/h (1 Bft) S-SO 157 11,5 C 4,1 km/h (1 Bft)
15.07.2015 02:45 15,2 C 15,1 C 81 % 1015,2 hPa 0,0 mm 3,1 km/h (1 Bft) S 180 12,0 C 3,4 km/h (1 Bft)
15.07.2015 02:50 15,0 C 15,0 C 81 % 1015,1 hPa 0,0 mm 1,3 km/h (1 Bft) S-SO 157 11,8 C 0,0 km/h (0 Bft)
15.07.2015 02:55 14,8 C 14,8 C 81 % 1015,1 hPa 0,0 mm 0,3 km/h (0 Bft) S-SO 157 11,6 C 0,0 km/h (0 Bft)
15.07.2015 03:00 14,9 C 14,8 C 81 % 1015,1 hPa 0,0 mm 0,3 km/h (0 Bft) S 180 11,7 C 0,0 km/h (0 Bft)
15.07.2015 03:05 14,8 C 14,7 C 81 % 1015,1 hPa 0,0 mm 0,3 km/h (0 Bft) SO 135 11,6 C 0,0 km/h (0 Bft)
15.07.2015 03:10 14,8 C 14,7 C 81 % 1015,1 hPa 0,0 mm 0,3 km/h (0 Bft) SO 135 11,6 C 0,0 km/h (0 Bft)
15.07.2015 03:15 14,6 C 14,5 C 81 % 1015,1 hPa 0,0 mm 0,5 km/h (0 Bft) S 180 11,4 C 0,0 km/h (0 Bft)
15.07.2015 03:20 14,6 C 14,5 C 81 % 1015,1 hPa 0,0 mm 0,3 km/h (0 Bft) SO 135 11,4 C 0,0 km/h (0 Bft)
15.07.2015 03:25 14,7 C 14,5 C 81 % 1015,1 hPa 0,0 mm 0,0 km/h (0 Bft) SO 135 11,5 C 0,0 km/h (0 Bft)
15.07.2015 03:30 14,7 C 14,5 C 81 % 1015,0 hPa 0,0 mm 0,0 km/h (0 Bft) SO 135 11,5 C 0,0 km/h (0 Bft)
15.07.2015 03:35 14,5 C 14,3 C 81 % 1015,0 hPa 0,0 mm 0,0 km/h (0 Bft) SW 225 11,3 C 0,0 km/h (0 Bft)
15.07.2015 03:40 14,5 C 14,3 C 81 % 1015,0 hPa 0,0 mm 0,0 km/h (0 Bft) S 180 11,3 C 0,0 km/h (0 Bft)
15.07.2015 03:45 14,3 C 14,1 C 81 % 1015,0 hPa 0,0 mm 0,0 km/h (0 Bft) S-SO 157 11,1 C 0,0 km/h (0 Bft)
15.07.2015 03:50 14,1 C 13,9 C 81 % 1015,2 hPa 0,0 mm 0,0 km/h (0 Bft) NW 315 10,9 C 0,0 km/h (0 Bft)
15.07.2015 03:55 14,3 C 14,0 C 82 % 1015,2 hPa 0,0 mm 0,0 km/h (0 Bft) SO 135 11,3 C 0,0 km/h (0 Bft)
15.07.2015 04:00 14,3 C 14,0 C 82 % 1015,2 hPa 0,0 mm 0,0 km/h (0 Bft) S-SW 202 11,3 C 0,0 km/h (0 Bft)
15.07.2015 04:05 14,3 C 14,0 C 82 % 1015,2 hPa 0,0 mm 0,0 km/h (0 Bft) SO 135 11,3 C 0,0 km/h (0 Bft)
15.07.2015 04:10 14,3 C 14,1 C 80 % 1015,1 hPa 0,0 mm 0,0 km/h (0 Bft) SO 135 10,9 C 0,0 km/h (0 Bft)
15.07.2015 04:15 14,4 C 14,2 C 80 % 1015,1 hPa 0,0 mm 0,0 km/h (0 Bft) S-SO 157 11,0 C 0,0 km/h (0 Bft)
15.07.2015 04:20 14,2 C 14,0 C 82 % 1015,1 hPa 0,0 mm 0,0 km/h (0 Bft) S 180 11,2 C 0,0 km/h (0 Bft)
15.07.2015 04:25 14,1 C 14,0 C 82 % 1015,1 hPa 0,0 mm 0,0 km/h (0 Bft) S-SO 157 11,1 C 0,0 km/h (0 Bft)
15.07.2015 04:30 13,9 C 13,8 C 82 % 1015,2 hPa 0,0 mm 0,0 km/h (0 Bft) SO 135 10,9 C 0,0 km/h (0 Bft)
15.07.2015 04:35 13,6 C 13,5 C 82 % 1015,2 hPa 0,0 mm 0,0 km/h (0 Bft) W-NW 292 10,6 C 0,0 km/h (0 Bft)
15.07.2015 04:40 13,5 C 13,3 C 82 % 1015,2 hPa 0,0 mm 0,0 km/h (0 Bft) N-NW 337 10,5 C 0,0 km/h (0 Bft)
15.07.2015 04:45 13,4 C 13,2 C 82 % 1015,2 hPa 0,0 mm 0,0 km/h (0 Bft) N-NW 337 10,4 C 0,0 km/h (0 Bft)
15.07.2015 04:50 13,2 C 13,0 C 82 % 1015,2 hPa 0,0 mm 0,0 km/h (0 Bft) N-NW 337 10,2 C 0,0 km/h (0 Bft)
15.07.2015 04:55 13,2 C 13,0 C 82 % 1015,2 hPa 0,0 mm 0,0 km/h (0 Bft) N-NW 337 10,2 C 0,0 km/h (0 Bft)
15.07.2015 05:00 13,1 C 12,9 C 82 % 1015,2 hPa 0,0 mm 0,0 km/h (0 Bft) SW 225 10,1 C 0,0 km/h (0 Bft)
15.07.2015 05:05 13,1 C 12,9 C 83 % 1015,2 hPa 0,0 mm 0,0 km/h (0 Bft) W-SW 247 10,3 C 0,0 km/h (0 Bft)
15.07.2015 05:10 13,0 C 12,8 C 83 % 1015,2 hPa 0,0 mm 0,0 km/h (0 Bft) W-SW 247 10,2 C 0,0 km/h (0 Bft)
15.07.2015 05:15 12,8 C 12,6 C 83 % 1015,2 hPa 0,0 mm 0,0 km/h (0 Bft) W-SW 247 10,0 C 0,0 km/h (0 Bft)
15.07.2015 05:20 12,9 C 12,7 C 84 % 1015,2 hPa 0,0 mm 0,0 km/h (0 Bft) S 180 10,3 C 0,0 km/h (0 Bft)
15.07.2015 05:25 12,9 C 12,7 C 84 % 1015,2 hPa 0,0 mm 0,0 km/h (0 Bft) W-SW 247 10,3 C 0,0 km/h (0 Bft)
15.07.2015 05:30 12,8 C 12,6 C 84 % 1015,3 hPa 0,0 mm 0,0 km/h (0 Bft) NW 315 10,2 C 0,0 km/h (0 Bft)
15.07.2015 05:35 12,6 C 12,4 C 84 % 1015,3 hPa 0,0 mm 0,0 km/h (0 Bft) W-SW 247 10,0 C 0,0 km/h (0 Bft)
15.07.2015 05:40 13,1 C 12,8 C 84 % 1015,3 hPa 0,0 mm 2,3 km/h (1 Bft) SW 225 10,5 C 14,0 km/h (3 Bft)
15.07.2015 05:45 13,4 C 13,1 C 85 % 1015,3 hPa 0,0 mm 4,1 km/h (1 Bft) O-SO 112 10,9 C 0,0 km/h (0 Bft)
15.07.2015 05:50 13,7 C 13,5 C 86 % 1015,3 hPa 0,0 mm 2,6 km/h (1 Bft) O-NO 67 11,4 C 0,0 km/h (0 Bft)
15.07.2015 05:55 13,5 C 13,4 C 85 % 1015,3 hPa 0,0 mm 0,5 km/h (0 Bft) SO 135 11,0 C 0,0 km/h (0 Bft)
15.07.2015 06:00 13,7 C 13,5 C 85 % 1015,3 hPa 0,0 mm 0,0 km/h (0 Bft) S-SO 157 11,2 C 0,0 km/h (0 Bft)
15.07.2015 06:05 13,5 C 13,4 C 85 % 1015,3 hPa 0,0 mm 0,0 km/h (0 Bft) S-SO 157 11,0 C 0,0 km/h (0 Bft)
15.07.2015 06:10 13,5 C 13,3 C 85 % 1015,4 hPa 0,0 mm 0,0 km/h (0 Bft) S-SO 157 11,0 C 0,0 km/h (0 Bft)
15.07.2015 06:15 13,8 C 13,6 C 85 % 1015,4 hPa 0,0 mm 0,3 km/h (0 Bft) S-SO 157 11,3 C 2,6 km/h (1 Bft)
15.07.2015 06:20 13,9 C 13,9 C 82 % 1015,4 hPa 0,0 mm 0,5 km/h (0 Bft) SO 135 10,9 C 0,0 km/h (0 Bft)
15.07.2015 06:25 14,0 C 13,9 C 84 % 1015,4 hPa 0,0 mm 0,3 km/h (0 Bft) SO 135 11,3 C 0,0 km/h (0 Bft)
15.07.2015 06:30 14,0 C 14,1 C 82 % 1015,4 hPa 0,0 mm 1,0 km/h (0 Bft) S 180 11,0 C 2,8 km/h (1 Bft)
15.07.2015 06:35 14,1 C 14,3 C 82 % 1015,4 hPa 0,0 mm 2,1 km/h (1 Bft) S-SO 157 11,1 C 4,9 km/h (1 Bft)
15.07.2015 06:40 14,5 C 15,2 C 82 % 1015,4 hPa 0,0 mm 2,1 km/h (1 Bft) S-SO 157 11,5 C 3,4 km/h (1 Bft)
15.07.2015 06:45 14,6 C 15,6 C 82 % 1015,4 hPa 0,0 mm 1,6 km/h (1 Bft) S-SO 157 11,6 C 0,0 km/h (0 Bft)
15.07.2015 06:50 14,9 C 17,1 C 81 % 1015,4 hPa 0,0 mm 0,8 km/h (0 Bft) S-SO 157 11,7 C 0,0 km/h (0 Bft)
15.07.2015 06:55 14,9 C 17,2 C 81 % 1015,4 hPa 0,0 mm 0,3 km/h (0 Bft) SO 135 11,7 C 0,0 km/h (0 Bft)
15.07.2015 07:00 15,4 C 18,3 C 81 % 1015,4 hPa 0,0 mm 0,0 km/h (0 Bft) SO 135 12,2 C 0,0 km/h (0 Bft)
15.07.2015 07:05 15,8 C 19,3 C 80 % 1015,4 hPa 0,0 mm 0,0 km/h (0 Bft) SO 135 12,4 C 0,0 km/h (0 Bft)
15.07.2015 07:10 15,8 C 19,1 C 79 % 1015,5 hPa 0,0 mm 0,0 km/h (0 Bft) SO 135 12,2 C 0,0 km/h (0 Bft)
15.07.2015 07:15 16,2 C 19,8 C 79 % 1015,5 hPa 0,0 mm 0,0 km/h (0 Bft) SO 135 12,6 C 0,0 km/h (0 Bft)
15.07.2015 07:20 16,8 C 21,2 C 78 % 1015,5 hPa 0,0 mm 0,0 km/h (0 Bft) SO 135 12,9 C 0,0 km/h (0 Bft)
15.07.2015 07:25 16,4 C 21,1 C 77 % 1015,5 hPa 0,0 mm 0,0 km/h (0 Bft) SO 135 12,4 C 0,0 km/h (0 Bft)
15.07.2015 07:30 17,2 C 22,3 C 76 % 1015,6 hPa 0,0 mm 0,0 km/h (0 Bft) SO 135 12,9 C 0,0 km/h (0 Bft)
15.07.2015 07:35 17,8 C 23,6 C 76 % 1015,6 hPa 0,0 mm 0,0 km/h (0 Bft) SO 135 13,5 C 0,0 km/h (0 Bft)
15.07.2015 07:40 18,5 C 24,8 C 75 % 1015,6 hPa 0,0 mm 0,0 km/h (0 Bft) W 270 14,0 C 0,0 km/h (0 Bft)
15.07.2015 07:45 18,6 C 25,0 C 75 % 1015,6 hPa 0,0 mm 0,0 km/h (0 Bft) W 270 14,1 C 0,0 km/h (0 Bft)
15.07.2015 07:50 18,8 C 25,4 C 75 % 1015,6 hPa 0,0 mm 0,0 km/h (0 Bft) W 270 14,3 C 0,0 km/h (0 Bft)
15.07.2015 07:55 18,4 C 24,7 C 74 % 1015,6 hPa 0,0 mm 0,0 km/h (0 Bft) W 270 13,7 C 0,0 km/h (0 Bft)
15.07.2015 08:00 19,4 C 25,9 C 74 % 1015,6 hPa 0,0 mm 0,0 km/h (0 Bft) W 270 14,6 C 0,0 km/h (0 Bft)
15.07.2015 08:06 19,1 C 25,3 C 73 % 1015,8 hPa 0,0 mm 0,0 km/h (0 Bft) S-SO 157 14,1 C 0,0 km/h (0 Bft)
15.07.2015 08:10 19,1 C 25,3 C 73 % 1015,8 hPa 0,0 mm 0,0 km/h (0 Bft) S-SO 157 14,1 C 0,0 km/h (0 Bft)
15.07.2015 08:15 19,6 C 26,3 C 72 % 1015,8 hPa 0,0 mm 0,0 km/h (0 Bft) W 270 14,4 C 0,0 km/h (0 Bft)
15.07.2015 08:20 20,4 C 27,1 C 69 % 1015,8 hPa 0,0 mm 0,0 km/h (0 Bft) W 270 14,5 C 0,0 km/h (0 Bft)
15.07.2015 08:25 20,4 C 26,2 C 69 % 1015,8 hPa 0,0 mm 0,3 km/h (0 Bft) W 270 14,5 C 4,7 km/h (1 Bft)
15.07.2015 08:30 20,6 C 26,7 C 68 % 1015,8 hPa 0,0 mm 1,6 km/h (1 Bft) O-NO 67 14,5 C 0,0 km/h (0 Bft)
15.07.2015 08:35 20,6 C 27,3 C 68 % 1015,8 hPa 0,0 mm 1,6 km/h (1 Bft) O-NO 67 14,5 C 0,0 km/h (0 Bft)
15.07.2015 08:40 20,7 C 27,9 C 67 % 1015,8 hPa 0,0 mm 0,0 km/h (0 Bft) NO 45 14,3 C 3,9 km/h (1 Bft)
15.07.2015 08:45 21,2 C 28,1 C 66 % 1015,8 hPa 0,0 mm 0,8 km/h (0 Bft) N-NO 22 14,6 C 3,6 km/h (1 Bft)
15.07.2015 08:50 21,6 C 28,6 C 66 % 1016,1 hPa 0,0 mm 0,8 km/h (0 Bft) W-SW 247 15,0 C 0,0 km/h (0 Bft)
15.07.2015 08:55 21,7 C 28,8 C 65 % 1016,1 hPa 0,0 mm 0,8 km/h (0 Bft) NO 45 14,8 C 0,0 km/h (0 Bft)
15.07.2015 09:00 21,6 C 28,4 C 65 % 1016,1 hPa 0,0 mm 1,6 km/h (1 Bft) N-NO 22 14,7 C 0,0 km/h (0 Bft)
15.07.2015 09:05 21,4 C 27,8 C 64 % 1016,1 hPa 0,0 mm 1,8 km/h (1 Bft) O 90 14,3 C 0,0 km/h (0 Bft)
15.07.2015 09:10 21,0 C 27,0 C 64 % 1016,5 hPa 0,0 mm 1,6 km/h (1 Bft) O-NO 67 13,9 C 0,0 km/h (0 Bft)
15.07.2015 09:15 20,8 C 26,3 C 64 % 1016,5 hPa 0,0 mm 2,1 km/h (1 Bft) NO 45 13,7 C 4,1 km/h (1 Bft)
15.07.2015 09:20 21,4 C 27,7 C 64 % 1016,5 hPa 0,0 mm 1,0 km/h (0 Bft) S 180 14,3 C 0,0 km/h (0 Bft)
15.07.2015 09:25 21,9 C 28,4 C 63 % 1016,5 hPa 0,0 mm 0,5 km/h (0 Bft) NW 315 14,5 C 0,0 km/h (0 Bft)
15.07.2015 09:30 21,8 C 29,2 C 62 % 1016,3 hPa 0,0 mm 0,5 km/h (0 Bft) S-SO 157 14,2 C 0,0 km/h (0 Bft)
15.07.2015 09:35 21,8 C 29,5 C 62 % 1016,3 hPa 0,0 mm 0,8 km/h (0 Bft) N 360 14,2 C 0,0 km/h (0 Bft)
15.07.2015 09:40 21,8 C 29,8 C 61 % 1016,3 hPa 0,0 mm 1,8 km/h (1 Bft) S-SO 157 13,9 C 5,2 km/h (1 Bft)
15.07.2015 09:45 22,1 C 29,3 C 61 % 1016,3 hPa 0,0 mm 2,6 km/h (1 Bft) NW 315 14,2 C 5,4 km/h (1 Bft)
15.07.2015 09:50 22,1 C 29,2 C 61 % 1016,4 hPa 0,0 mm 4,1 km/h (1 Bft) N-NW 337 14,2 C 5,4 km/h (1 Bft)
15.07.2015 09:55 22,0 C 28,6 C 61 % 1016,4 hPa 0,0 mm 5,4 km/h (1 Bft) NO 45 14,1 C 8,5 km/h (2 Bft)
15.07.2015 10:00 22,0 C 28,2 C 61 % 1016,4 hPa 0,0 mm 4,7 km/h (1 Bft) O-NO 67 14,1 C 2,6 km/h (1 Bft)
15.07.2015 10:05 22,5 C 29,1 C 62 % 1016,4 hPa 0,0 mm 2,6 km/h (1 Bft) N-NO 22 14,8 C 3,4 km/h (1 Bft)
15.07.2015 10:10 22,7 C 29,2 C 59 % 1016,5 hPa 0,0 mm 2,8 km/h (1 Bft) O-NO 67 14,3 C 3,6 km/h (1 Bft)
15.07.2015 10:15 22,8 C 29,1 C 61 % 1016,5 hPa 0,0 mm 3,9 km/h (1 Bft) O-NO 67 14,9 C 3,4 km/h (1 Bft)
15.07.2015 10:20 22,9 C 29,7 C 59 % 1016,5 hPa 0,0 mm 3,6 km/h (1 Bft) W-SW 247 14,5 C 11,7 km/h (2 Bft)
15.07.2015 10:25 22,8 C 29,7 C 59 % 1016,5 hPa 0,0 mm 3,1 km/h (1 Bft) NW 315 14,4 C 5,2 km/h (1 Bft)
15.07.2015 10:30 22,9 C 29,5 C 59 % 1016,8 hPa 0,0 mm 3,4 km/h (1 Bft) O-NO 67 14,5 C 0,0 km/h (0 Bft)
15.07.2015 10:35 23,0 C 30,0 C 58 % 1016,8 hPa 0,0 mm 2,1 km/h (1 Bft) S 180 14,3 C 3,1 km/h (1 Bft)
15.07.2015 10:40 23,0 C 30,7 C 58 % 1016,8 hPa 0,0 mm 1,0 km/h (0 Bft) W-SW 247 14,3 C 2,8 km/h (1 Bft)
15.07.2015 10:45 23,6 C 30,9 C 58 % 1016,8 hPa 0,0 mm 1,6 km/h (1 Bft) O-NO 67 14,8 C 3,6 km/h (1 Bft)
15.07.2015 10:50 23,8 C 30,4 C 59 % 1016,8 hPa 0,0 mm 3,6 km/h (1 Bft) NW 315 15,3 C 15,5 km/h (3 Bft)
15.07.2015 10:55 23,6 C 29,8 C 58 % 1016,8 hPa 0,0 mm 5,7 km/h (1 Bft) W 270 14,8 C 3,1 km/h (1 Bft)
15.07.2015 11:00 23,6 C 29,2 C 58 % 1016,8 hPa 0,0 mm 7,0 km/h (2 Bft) NW 315 14,8 C 6,7 km/h (2 Bft)
15.07.2015 11:05 23,6 C 29,0 C 58 % 1016,8 hPa 0,0 mm 6,7 km/h (2 Bft) N-NO 22 14,8 C 3,9 km/h (1 Bft)
15.07.2015 11:10 24,0 C 29,8 C 58 % 1016,7 hPa 0,0 mm 4,1 km/h (1 Bft) NO 45 15,2 C 6,0 km/h (2 Bft)
15.07.2015 11:15 24,0 C 30,0 C 58 % 1016,7 hPa 0,0 mm 2,8 km/h (1 Bft) N-NO 22 15,2 C 6,2 km/h (2 Bft)
15.07.2015 11:20 23,6 C 29,8 C 58 % 1016,7 hPa 0,0 mm 4,7 km/h (1 Bft) NO 45 14,8 C 8,8 km/h (2 Bft)
15.07.2015 11:25 23,6 C 29,6 C 58 % 1016,7 hPa 0,0 mm 4,9 km/h (1 Bft) O-NO 67 14,8 C 2,6 km/h (1 Bft)
15.07.2015 11:30 23,6 C 29,5 C 58 % 1017,1 hPa 0,0 mm 5,2 km/h (1 Bft) N-NO 22 14,8 C 8,0 km/h (2 Bft)
15.07.2015 11:35 23,6 C 29,6 C 58 % 1017,1 hPa 0,0 mm 3,4 km/h (1 Bft) O 90 14,8 C 0,0 km/h (0 Bft)
15.07.2015 11:40 24,1 C 30,3 C 58 % 1017,1 hPa 0,0 mm 2,8 km/h (1 Bft) N-NO 22 15,3 C 10,4 km/h (2 Bft)
15.07.2015 11:45 24,1 C 30,0 C 58 % 1017,1 hPa 0,0 mm 4,1 km/h (1 Bft) NO 45 15,3 C 9,6 km/h (2 Bft)
15.07.2015 11:50 24,3 C 29,8 C 58 % 1017,0 hPa 0,0 mm 6,2 km/h (2 Bft) N 360 15,5 C 8,3 km/h (2 Bft)
15.07.2015 11:55 24,5 C 29,8 C 58 % 1017,0 hPa 0,0 mm 6,5 km/h (2 Bft) O-NO 67 15,7 C 11,9 km/h (2 Bft)
15.07.2015 12:00 24,2 C 30,0 C 57 % 1017,0 hPa 0,0 mm 6,0 km/h (2 Bft) SW 225 15,1 C 7,8 km/h (2 Bft)
15.07.2015 12:05 24,3 C 29,8 C 58 % 1017,0 hPa 0,0 mm 6,0 km/h (2 Bft) O 90 15,5 C 7,0 km/h (2 Bft)
15.07.2015 12:10 24,0 C 29,6 C 57 % 1016,9 hPa 0,0 mm 6,0 km/h (2 Bft) N-NO 22 14,9 C 7,8 km/h (2 Bft)
15.07.2015 12:15 23,9 C 29,5 C 58 % 1016,9 hPa 0,0 mm 6,5 km/h (2 Bft) O-NO 67 15,1 C 6,5 km/h (2 Bft)
15.07.2015 12:20 23,4 C 28,4 C 58 % 1016,9 hPa 0,0 mm 5,4 km/h (1 Bft) NO 45 14,7 C 3,4 km/h (1 Bft)
15.07.2015 12:25 23,6 C 28,4 C 58 % 1016,9 hPa 0,0 mm 4,9 km/h (1 Bft) N-NO 22 14,8 C 7,5 km/h (2 Bft)
15.07.2015 12:30 24,1 C 28,7 C 57 % 1016,8 hPa 0,0 mm 6,0 km/h (2 Bft) O-SO 112 15,0 C 0,0 km/h (0 Bft)
15.07.2015 12:35 24,2 C 29,0 C 57 % 1016,8 hPa 0,0 mm 5,4 km/h (1 Bft) NO 45 15,1 C 7,8 km/h (2 Bft)
15.07.2015 12:40 24,3 C 29,5 C 56 % 1016,8 hPa 0,0 mm 5,2 km/h (1 Bft) O-NO 67 14,9 C 5,7 km/h (1 Bft)
15.07.2015 12:45 24,5 C 29,8 C 57 % 1016,8 hPa 0,0 mm 4,4 km/h (1 Bft) NO 45 15,4 C 0,0 km/h (0 Bft)
15.07.2015 12:50 24,8 C 30,0 C 57 % 1016,5 hPa 0,0 mm 4,7 km/h (1 Bft) N-NW 337 15,7 C 10,4 km/h (2 Bft)
15.07.2015 12:55 25,0 C 30,0 C 56 % 1016,5 hPa 0,0 mm 6,5 km/h (2 Bft) NW 315 15,6 C 9,3 km/h (2 Bft)
15.07.2015 13:00 25,2 C 29,7 C 56 % 1016,5 hPa 0,0 mm 7,5 km/h (2 Bft) N-NW 337 15,8 C 3,4 km/h (1 Bft)
15.07.2015 13:05 25,3 C 29,6 C 56 % 1016,5 hPa 0,0 mm 7,3 km/h (2 Bft) N-NW 337 15,9 C 3,4 km/h (1 Bft)
15.07.2015 13:10 25,3 C 30,4 C 55 % 1016,6 hPa 0,0 mm 4,9 km/h (1 Bft) O-NO 67 15,6 C 8,8 km/h (2 Bft)
15.07.2015 13:15 25,2 C 30,7 C 55 % 1016,6 hPa 0,0 mm 4,1 km/h (1 Bft) NW 315 15,5 C 10,4 km/h (2 Bft)
15.07.2015 13:20 25,1 C 30,2 C 55 % 1016,6 hPa 0,0 mm 6,7 km/h (2 Bft) W-NW 292 15,4 C 7,5 km/h (2 Bft)
15.07.2015 13:25 25,4 C 29,8 C 55 % 1016,6 hPa 0,0 mm 7,5 km/h (2 Bft) W 270 15,7 C 11,4 km/h (2 Bft)
15.07.2015 13:30 25,8 C 28,9 C 55 % 1016,2 hPa 0,0 mm 6,0 km/h (2 Bft) W-SW 247 16,1 C 4,4 km/h (1 Bft)
15.07.2015 13:35 26,0 C 28,9 C 52 % 1016,2 hPa 0,0 mm 6,0 km/h (2 Bft) NW 315 15,4 C 6,0 km/h (2 Bft)
15.07.2015 13:40 26,0 C 28,6 C 52 % 1016,2 hPa 0,0 mm 6,5 km/h (2 Bft) W 270 15,4 C 6,7 km/h (2 Bft)
15.07.2015 13:45 25,9 C 29,0 C 53 % 1016,2 hPa 0,0 mm 6,2 km/h (2 Bft) O-SO 112 15,6 C 4,9 km/h (1 Bft)
15.07.2015 13:50 25,7 C 29,9 C 54 % 1016,1 hPa 0,0 mm 4,9 km/h (1 Bft) N 360 15,7 C 8,3 km/h (2 Bft)
15.07.2015 13:55 25,6 C 30,2 C 54 % 1016,1 hPa 0,0 mm 5,2 km/h (1 Bft) NW 315 15,6 C 9,8 km/h (2 Bft)
15.07.2015 14:00 25,4 C 30,0 C 54 % 1016,1 hPa 0,0 mm 6,7 km/h (2 Bft) O-SO 112 15,4 C 6,0 km/h (2 Bft)
15.07.2015 14:05 25,2 C 30,0 C 54 % 1016,1 hPa 0,0 mm 6,0 km/h (2 Bft) SW 225 15,2 C 3,9 km/h (1 Bft)
15.07.2015 14:07 25,3 C 30,5 C 54 % 1015,8 hPa 0,0 mm 4,4 km/h (1 Bft) O-NO 67 15,3 C 4,9 km/h (1 Bft)
15.07.2015 14:10 25,3 C 30,5 C 54 % 1015,8 hPa 0,0 mm 4,4 km/h (1 Bft) O-NO 67 15,3 C 4,9 km/h (1 Bft)
15.07.2015 14:15 25,7 C 30,8 C 55 % 1015,8 hPa 0,0 mm 4,9 km/h (1 Bft) NO 45 16,0 C 10,6 km/h (2 Bft)
15.07.2015 14:20 25,8 C 30,6 C 54 % 1015,8 hPa 0,0 mm 6,7 km/h (2 Bft) N-NW 337 15,8 C 16,1 km/h (3 Bft)
15.07.2015 14:25 25,9 C 30,5 C 55 % 1015,8 hPa 0,0 mm 7,8 km/h (2 Bft) NO 45 16,2 C 5,7 km/h (1 Bft)
15.07.2015 14:30 25,4 C 29,8 C 55 % 1015,6 hPa 0,0 mm 6,5 km/h (2 Bft) O-NO 67 15,7 C 4,4 km/h (1 Bft)
15.07.2015 14:35 25,4 C 29,8 C 56 % 1015,6 hPa 0,0 mm 6,2 km/h (2 Bft) N-NO 22 16,0 C 7,0 km/h (2 Bft)
15.07.2015 14:40 25,4 C 29,8 C 55 % 1015,6 hPa 0,0 mm 6,2 km/h (2 Bft) O-NO 67 15,7 C 5,7 km/h (1 Bft)
15.07.2015 14:45 25,5 C 29,8 C 56 % 1015,6 hPa 0,0 mm 5,4 km/h (1 Bft) O-NO 67 16,1 C 3,6 km/h (1 Bft)
15.07.2015 14:50 25,7 C 30,5 C 54 % 1015,3 hPa 0,0 mm 4,9 km/h (1 Bft) O-NO 67 15,7 C 13,2 km/h (3 Bft)
15.07.2015 14:55 25,8 C 30,6 C 54 % 1015,3 hPa 0,0 mm 4,9 km/h (1 Bft) N-NO 22 15,8 C 11,7 km/h (2 Bft)
15.07.2015 15:00 25,9 C 30,5 C 55 % 1015,3 hPa 0,0 mm 6,5 km/h (2 Bft) N 360 16,2 C 22,8 km/h (4 Bft)
15.07.2015 15:05 25,8 C 30,5 C 56 % 1015,3 hPa 0,0 mm 7,3 km/h (2 Bft) N-NO 22 16,3 C 8,5 km/h (2 Bft)
15.07.2015 15:10 26,2 C 31,0 C 53 % 1015,1 hPa 0,0 mm 4,4 km/h (1 Bft) O-SO 112 15,8 C 13,7 km/h (3 Bft)
15.07.2015 15:15 26,0 C 30,7 C 53 % 1015,1 hPa 0,0 mm 7,0 km/h (2 Bft) N-NO 22 15,7 C 12,2 km/h (2 Bft)
15.07.2015 15:20 26,4 C 30,4 C 52 % 1015,1 hPa 0,0 mm 9,3 km/h (2 Bft) W-SW 247 15,7 C 12,4 km/h (3 Bft)
15.07.2015 15:25 26,4 C 30,6 C 51 % 1015,1 hPa 0,0 mm 7,3 km/h (2 Bft) W 270 15,4 C 13,2 km/h (3 Bft)
15.07.2015 15:30 26,4 C 31,4 C 50 % 1015,1 hPa 0,0 mm 4,4 km/h (1 Bft) S-SW 202 15,1 C 7,0 km/h (2 Bft)
15.07.2015 15:35 26,2 C 31,6 C 50 % 1015,1 hPa 0,0 mm 3,1 km/h (1 Bft) N-NW 337 14,9 C 4,7 km/h (1 Bft)
15.07.2015 15:40 26,6 C 32,0 C 50 % 1015,1 hPa 0,0 mm 4,7 km/h (1 Bft) NO 45 15,3 C 7,3 km/h (2 Bft)
15.07.2015 15:45 26,5 C 31,7 C 50 % 1015,1 hPa 0,0 mm 6,0 km/h (2 Bft) NW 315 15,2 C 9,8 km/h (2 Bft)
15.07.2015 15:50 26,5 C 31,4 C 50 % 1014,9 hPa 0,0 mm 6,5 km/h (2 Bft) O-NO 67 15,2 C 9,3 km/h (2 Bft)
15.07.2015 15:55 26,2 C 31,1 C 52 % 1014,9 hPa 0,0 mm 6,5 km/h (2 Bft) NO 45 15,6 C 9,8 km/h (2 Bft)
15.07.2015 16:00 26,0 C 31,0 C 51 % 1014,9 hPa 0,0 mm 5,4 km/h (1 Bft) SO 135 15,1 C 0,0 km/h (0 Bft)
15.07.2015 16:05 26,0 C 31,2 C 51 % 1014,9 hPa 0,0 mm 6,2 km/h (2 Bft) O-NO 67 15,1 C 11,4 km/h (2 Bft)
15.07.2015 16:10 25,7 C 30,0 C 55 % 1014,9 hPa 0,0 mm 6,5 km/h (2 Bft) O 90 16,0 C 6,2 km/h (2 Bft)
15.07.2015 16:15 25,7 C 30,2 C 55 % 1014,9 hPa 0,0 mm 5,4 km/h (1 Bft) O-SO 112 16,0 C 6,0 km/h (2 Bft)
15.07.2015 16:20 25,3 C 31,4 C 55 % 1014,9 hPa 0,0 mm 2,8 km/h (1 Bft) NO 45 15,6 C 5,2 km/h (1 Bft)
15.07.2015 16:25 25,4 C 31,6 C 55 % 1014,9 hPa 0,0 mm 4,1 km/h (1 Bft) N-NO 22 15,7 C 9,6 km/h (2 Bft)
15.07.2015 16:30 25,5 C 31,7 C 55 % 1014,6 hPa 0,0 mm 4,9 km/h (1 Bft) N-NO 22 15,8 C 7,0 km/h (2 Bft)
15.07.2015 16:35 25,6 C 32,0 C 55 % 1014,6 hPa 0,0 mm 4,1 km/h (1 Bft) NO 45 15,9 C 4,7 km/h (1 Bft)
15.07.2015 16:40 25,5 C 31,8 C 54 % 1014,6 hPa 0,0 mm 5,2 km/h (1 Bft) W 270 15,5 C 8,0 km/h (2 Bft)
15.07.2015 16:45 25,4 C 30,9 C 55 % 1014,6 hPa 0,0 mm 6,0 km/h (2 Bft) N-NW 337 15,7 C 4,7 km/h (1 Bft)
15.07.2015 16:50 25,4 C 30,7 C 55 % 1014,6 hPa 0,0 mm 6,0 km/h (2 Bft) N-NW 337 15,7 C 2,6 km/h (1 Bft)
15.07.2015 16:55 25,5 C 30,9 C 55 % 1014,6 hPa 0,0 mm 5,2 km/h (1 Bft) W 270 15,8 C 4,9 km/h (1 Bft)
15.07.2015 17:00 25,4 C 31,5 C 54 % 1014,6 hPa 0,0 mm 4,4 km/h (1 Bft) NO 45 15,4 C 7,0 km/h (2 Bft)
15.07.2015 17:05 25,4 C 31,4 C 54 % 1014,6 hPa 0,0 mm 4,1 km/h (1 Bft) NO 45 15,4 C 3,1 km/h (1 Bft)
15.07.2015 17:10 25,3 C 29,8 C 54 % 1014,5 hPa 0,0 mm 3,6 km/h (1 Bft) NO 45 15,3 C 0,0 km/h (0 Bft)
15.07.2015 17:15 25,3 C 28,9 C 54 % 1014,5 hPa 0,0 mm 3,9 km/h (1 Bft) N-NO 22 15,3 C 9,3 km/h (2 Bft)
15.07.2015 17:20 25,3 C 27,9 C 54 % 1014,5 hPa 0,0 mm 3,6 km/h (1 Bft) O-SO 112 15,3 C 4,4 km/h (1 Bft)
15.07.2015 17:25 25,2 C 27,4 C 54 % 1014,5 hPa 0,0 mm 3,6 km/h (1 Bft) O-NO 67 15,2 C 6,7 km/h (2 Bft)
15.07.2015 17:30 25,1 C 27,0 C 54 % 1014,6 hPa 0,0 mm 3,4 km/h (1 Bft) O-NO 67 15,1 C 4,7 km/h (1 Bft)
15.07.2015 17:35 25,1 C 26,8 C 54 % 1014,6 hPa 0,0 mm 3,6 km/h (1 Bft) O-NO 67 15,1 C 5,2 km/h (1 Bft)
15.07.2015 17:40 25,2 C 26,6 C 54 % 1014,6 hPa 0,0 mm 4,7 km/h (1 Bft) N-NW 337 15,2 C 6,5 km/h (2 Bft)
15.07.2015 17:45 25,3 C 26,6 C 53 % 1014,6 hPa 0,0 mm 4,7 km/h (1 Bft) NO 45 15,0 C 11,4 km/h (2 Bft)
15.07.2015 17:50 25,3 C 26,5 C 53 % 1014,3 hPa 0,0 mm 5,7 km/h (1 Bft) N 360 15,0 C 3,1 km/h (1 Bft)
15.07.2015 17:55 25,4 C 26,5 C 53 % 1014,3 hPa 0,0 mm 6,2 km/h (2 Bft) W-NW 292 15,1 C 6,7 km/h (2 Bft)
15.07.2015 18:00 25,4 C 26,6 C 55 % 1014,3 hPa 0,0 mm 5,2 km/h (1 Bft) S-SO 157 15,7 C 3,6 km/h (1 Bft)
15.07.2015 18:05 25,2 C 26,4 C 55 % 1014,3 hPa 0,0 mm 4,7 km/h (1 Bft) NW 315 15,5 C 0,0 km/h (0 Bft)
15.07.2015 18:10 25,1 C 26,4 C 54 % 1014,2 hPa 0,7 mm 6,7 km/h (2 Bft) O-NO 67 15,1 C 12,9 km/h (3 Bft)
15.07.2015 18:15 25,0 C 26,1 C 55 % 1014,2 hPa 0,0 mm 8,0 km/h (2 Bft) N-NO 22 15,3 C 4,1 km/h (1 Bft)
15.07.2015 18:20 24,9 C 26,0 C 55 % 1014,2 hPa 0,0 mm 6,2 km/h (2 Bft) NO 45 15,2 C 7,5 km/h (2 Bft)
15.07.2015 18:25 24,9 C 25,9 C 55 % 1014,2 hPa 0,0 mm 5,2 km/h (1 Bft) N-NW 337 15,2 C 12,9 km/h (3 Bft)
15.07.2015 18:30 25,1 C 25,8 C 55 % 1014,2 hPa 0,7 mm 6,5 km/h (2 Bft) N-NO 22 15,4 C 11,7 km/h (2 Bft)
15.07.2015 18:35 25,0 C 25,8 C 55 % 1014,2 hPa 0,0 mm 7,0 km/h (2 Bft) NO 45 15,3 C 10,9 km/h (2 Bft)
15.07.2015 18:40 24,9 C 25,7 C 55 % 1014,2 hPa 0,0 mm 5,7 km/h (1 Bft) NO 45 15,2 C 7,3 km/h (2 Bft)
15.07.2015 18:45 24,7 C 25,7 C 55 % 1014,2 hPa 0,0 mm 6,5 km/h (2 Bft) NO 45 15,0 C 3,4 km/h (1 Bft)
15.07.2015 18:50 24,7 C 26,5 C 55 % 1014,2 hPa 0,0 mm 7,3 km/h (2 Bft) N-NW 337 15,0 C 14,0 km/h (3 Bft)
15.07.2015 18:55 24,7 C 27,1 C 55 % 1014,2 hPa 0,0 mm 7,5 km/h (2 Bft) N-NW 337 15,0 C 8,0 km/h (2 Bft)
15.07.2015 19:00 24,8 C 27,9 C 55 % 1014,2 hPa 0,0 mm 7,8 km/h (2 Bft) O-NO 67 15,1 C 5,7 km/h (1 Bft)
15.07.2015 19:05 24,7 C 28,3 C 55 % 1014,2 hPa 0,0 mm 5,7 km/h (1 Bft) NO 45 15,0 C 7,0 km/h (2 Bft)
15.07.2015 19:10 24,6 C 28,5 C 55 % 1014,2 hPa 0,0 mm 4,9 km/h (1 Bft) NW 315 14,9 C 0,0 km/h (0 Bft)
15.07.2015 19:15 24,5 C 28,4 C 55 % 1014,2 hPa 0,0 mm 6,2 km/h (2 Bft) O-NO 67 14,9 C 8,3 km/h (2 Bft)
15.07.2015 19:20 24,3 C 28,0 C 55 % 1014,2 hPa 0,0 mm 7,3 km/h (2 Bft) O-NO 67 14,7 C 9,8 km/h (2 Bft)
15.07.2015 19:25 24,3 C 27,9 C 55 % 1014,2 hPa 0,0 mm 7,8 km/h (2 Bft) NW 315 14,7 C 11,4 km/h (2 Bft)
15.07.2015 19:30 24,3 C 27,7 C 55 % 1014,1 hPa 0,0 mm 6,5 km/h (2 Bft) O-NO 67 14,7 C 8,8 km/h (2 Bft)
15.07.2015 19:35 24,2 C 27,7 C 55 % 1014,1 hPa 0,0 mm 6,0 km/h (2 Bft) NO 45 14,6 C 8,0 km/h (2 Bft)
15.07.2015 19:40 24,1 C 27,7 C 56 % 1014,1 hPa 0,0 mm 4,9 km/h (1 Bft) N-NO 22 14,8 C 8,0 km/h (2 Bft)
15.07.2015 19:45 24,3 C 27,5 C 56 % 1014,1 hPa 0,0 mm 5,2 km/h (1 Bft) N-NO 22 14,9 C 8,0 km/h (2 Bft)
15.07.2015 19:50 24,2 C 27,1 C 55 % 1014,2 hPa 0,0 mm 7,0 km/h (2 Bft) N 360 14,6 C 9,1 km/h (2 Bft)
15.07.2015 19:55 24,2 C 26,9 C 55 % 1014,2 hPa 0,0 mm 6,7 km/h (2 Bft) N-NO 22 14,6 C 9,1 km/h (2 Bft)
15.07.2015 20:00 24,1 C 26,7 C 55 % 1014,2 hPa 0,0 mm 5,4 km/h (1 Bft) NW 315 14,5 C 4,4 km/h (1 Bft)
15.07.2015 20:05 24,1 C 26,6 C 55 % 1014,2 hPa 0,0 mm 4,7 km/h (1 Bft) W 270 14,5 C 0,0 km/h (0 Bft)
15.07.2015 20:08 24,0 C 26,4 C 55 % 1014,2 hPa 0,0 mm 3,6 km/h (1 Bft) N-NO 22 14,4 C 6,0 km/h (2 Bft)
15.07.2015 20:10 24,0 C 26,4 C 55 % 1014,2 hPa 0,0 mm 3,6 km/h (1 Bft) N-NO 22 14,4 C 6,0 km/h (2 Bft)
15.07.2015 20:15 23,9 C 26,3 C 56 % 1014,2 hPa 0,0 mm 2,8 km/h (1 Bft) NW 315 14,6 C 0,0 km/h (0 Bft)
15.07.2015 20:20 23,3 C 26,2 C 57 % 1014,2 hPa 0,0 mm 1,0 km/h (0 Bft) NO 45 14,3 C 0,0 km/h (0 Bft)
15.07.2015 20:25 23,2 C 25,9 C 58 % 1014,2 hPa 0,0 mm 0,3 km/h (0 Bft) N-NW 337 14,5 C 0,0 km/h (0 Bft)
15.07.2015 20:30 22,6 C 25,6 C 59 % 1014,0 hPa 0,0 mm 0,3 km/h (0 Bft) W-NW 292 14,2 C 0,0 km/h (0 Bft)
15.07.2015 20:35 22,4 C 25,3 C 61 % 1014,0 hPa 0,0 mm 0,0 km/h (0 Bft) S 180 14,5 C 0,0 km/h (0 Bft)
15.07.2015 20:40 22,0 C 24,7 C 64 % 1014,0 hPa 0,0 mm 0,0 km/h (0 Bft) S 180 14,9 C 0,0 km/h (0 Bft)
15.07.2015 20:45 21,8 C 24,3 C 64 % 1014,0 hPa 0,0 mm 0,0 km/h (0 Bft) S-SO 157 14,7 C 0,0 km/h (0 Bft)
15.07.2015 20:50 21,3 C 23,7 C 66 % 1014,2 hPa 0,0 mm 0,0 km/h (0 Bft) S-SO 157 14,7 C 0,0 km/h (0 Bft)
15.07.2015 20:55 21,0 C 23,2 C 66 % 1014,2 hPa 0,0 mm 0,0 km/h (0 Bft) S-SO 157 14,4 C 0,0 km/h (0 Bft)
15.07.2015 21:00 20,7 C 22,5 C 67 % 1014,2 hPa 0,0 mm 0,0 km/h (0 Bft) S-SO 157 14,3 C 0,0 km/h (0 Bft)
15.07.2015 21:05 20,5 C 22,0 C 68 % 1014,2 hPa 0,0 mm 0,3 km/h (0 Bft) S-SO 157 14,4 C 3,4 km/h (1 Bft)
15.07.2015 21:10 20,5 C 21,2 C 67 % 1014,2 hPa 0,0 mm 1,8 km/h (1 Bft) S-SO 157 14,2 C 4,4 km/h (1 Bft)
15.07.2015 21:15 20,1 C 20,8 C 68 % 1014,2 hPa 0,0 mm 2,3 km/h (1 Bft) SO 135 14,0 C 0,0 km/h (0 Bft)
15.07.2015 21:20 19,9 C 20,1 C 69 % 1014,2 hPa 0,0 mm 2,3 km/h (1 Bft) S-SO 157 14,0 C 3,9 km/h (1 Bft)
15.07.2015 21:25 19,8 C 19,9 C 70 % 1014,2 hPa 0,0 mm 2,6 km/h (1 Bft) S-SO 157 14,2 C 3,1 km/h (1 Bft)
15.07.2015 21:30 19,5 C 19,6 C 70 % 1014,4 hPa 0,0 mm 3,4 km/h (1 Bft) S-SO 157 13,9 C 0,0 km/h (0 Bft)
15.07.2015 21:35 19,1 C 19,2 C 71 % 1014,4 hPa 0,0 mm 2,1 km/h (1 Bft) S-SO 157 13,7 C 0,0 km/h (0 Bft)
15.07.2015 21:40 18,9 C 18,9 C 72 % 1014,4 hPa 0,0 mm 0,3 km/h (0 Bft) O-SO 112 13,7 C 0,0 km/h (0 Bft)
15.07.2015 21:45 18,7 C 18,7 C 72 % 1014,4 hPa 0,0 mm 0,5 km/h (0 Bft) SO 135 13,5 C 3,6 km/h (1 Bft)
15.07.2015 21:50 18,4 C 18,4 C 72 % 1014,5 hPa 0,0 mm 0,5 km/h (0 Bft) S-SO 157 13,3 C 0,0 km/h (0 Bft)
15.07.2015 21:55 18,5 C 18,4 C 73 % 1014,5 hPa 0,0 mm 1,6 km/h (1 Bft) SW 225 13,6 C 0,0 km/h (0 Bft)
15.07.2015 22:00 18,2 C 18,2 C 73 % 1014,5 hPa 0,0 mm 1,8 km/h (1 Bft) O-NO 67 13,3 C 0,0 km/h (0 Bft)
15.07.2015 22:05 18,0 C 18,1 C 74 % 1014,5 hPa 0,0 mm 1,3 km/h (1 Bft) O-SO 112 13,3 C 2,8 km/h (1 Bft)
15.07.2015 22:10 17,8 C 17,7 C 74 % 1014,6 hPa 0,0 mm 1,0 km/h (0 Bft) S 180 13,1 C 3,1 km/h (1 Bft)
15.07.2015 22:15 17,9 C 18,0 C 74 % 1014,6 hPa 0,0 mm 1,3 km/h (1 Bft) S-SO 157 13,2 C 4,7 km/h (1 Bft)
15.07.2015 22:20 18,3 C 18,4 C 73 % 1014,6 hPa 0,0 mm 3,4 km/h (1 Bft) S-SO 157 13,4 C 3,4 km/h (1 Bft)
15.07.2015 22:25 18,2 C 18,3 C 73 % 1014,6 hPa 0,0 mm 3,9 km/h (1 Bft) S-SO 157 13,3 C 4,4 km/h (1 Bft)
15.07.2015 22:30 18,0 C 18,2 C 73 % 1014,7 hPa 0,0 mm 2,6 km/h (1 Bft) SO 135 13,1 C 3,9 km/h (1 Bft)
15.07.2015 22:35 18,0 C 18,0 C 74 % 1014,7 hPa 0,0 mm 3,1 km/h (1 Bft) SO 135 13,3 C 6,5 km/h (2 Bft)
15.07.2015 22:40 17,6 C 17,6 C 74 % 1014,7 hPa 0,0 mm 2,8 km/h (1 Bft) S 180 12,9 C 0,0 km/h (0 Bft)
15.07.2015 22:45 17,6 C 17,5 C 76 % 1014,7 hPa 0,0 mm 2,3 km/h (1 Bft) O-SO 112 13,3 C 3,6 km/h (1 Bft)
15.07.2015 22:50 17,4 C 17,3 C 75 % 1014,6 hPa 0,0 mm 1,0 km/h (0 Bft) SO 135 12,9 C 4,7 km/h (1 Bft)
15.07.2015 22:55 17,3 C 17,3 C 75 % 1014,6 hPa 0,0 mm 1,0 km/h (0 Bft) O-SO 112 12,8 C 0,0 km/h (0 Bft)
15.07.2015 23:00 17,2 C 17,0 C 77 % 1014,6 hPa 0,0 mm 1,0 km/h (0 Bft) O-SO 112 13,1 C 0,0 km/h (0 Bft)
15.07.2015 23:05 17,2 C 17,0 C 78 % 1014,6 hPa 0,0 mm 0,5 km/h (0 Bft) O-SO 112 13,3 C 0,0 km/h (0 Bft)
15.07.2015 23:10 17,0 C 16,8 C 78 % 1014,5 hPa 0,0 mm 1,0 km/h (0 Bft) S-SO 157 13,1 C 3,1 km/h (1 Bft)
15.07.2015 23:15 16,9 C 16,8 C 77 % 1014,5 hPa 0,0 mm 1,6 km/h (1 Bft) S-SO 157 12,8 C 5,2 km/h (1 Bft)
15.07.2015 23:20 16,8 C 16,7 C 78 % 1014,5 hPa 0,0 mm 1,0 km/h (0 Bft) O-SO 112 12,9 C 0,0 km/h (0 Bft)
15.07.2015 23:25 16,6 C 16,4 C 79 % 1014,5 hPa 0,0 mm 0,3 km/h (0 Bft) SO 135 12,9 C 0,0 km/h (0 Bft)
15.07.2015 23:30 16,4 C 16,2 C 79 % 1014,5 hPa 0,0 mm 0,0 km/h (0 Bft) NO 45 12,7 C 0,0 km/h (0 Bft)
15.07.2015 23:35 16,3 C 16,1 C 77 % 1014,5 hPa 0,0 mm 0,0 km/h (0 Bft) S-SO 157 12,3 C 0,0 km/h (0 Bft)
15.07.2015 23:40 16,2 C 16,3 C 78 % 1014,5 hPa 0,0 mm 0,0 km/h (0 Bft) SO 135 12,4 C 0,0 km/h (0 Bft)
15.07.2015 23:45 16,1 C 16,2 C 78 % 1014,5 hPa 0,0 mm 0,0 km/h (0 Bft) O-NO 67 12,3 C 0,0 km/h (0 Bft)
15.07.2015 23:50 16,0 C 15,8 C 79 % 1014,5 hPa 0,0 mm 0,0 km/h (0 Bft) O-NO 67 12,4 C 0,0 km/h (0 Bft)
15.07.2015 23:55 16,0 C 15,8 C 78 % 1014,5 hPa 0,0 mm 0,0 km/h (0 Bft) O-SO 112 12,2 C 0,0 km/h (0 Bft)
_ Min-Zeit 05:35 05:35 15:50 20:45 - 23:55 - - 05:35 23:55
Minimum _ 12,6 C 12,4 C 50 % 1014,0 hPa - 0,0 km/h (0 Bft) - - 10,0 C 0,0 km/h (0 Bft)
_ Max-Zeit 15:40 16:35 05:50 11:45 18:30 15:20 - - 15:05 15:00
Maximum _ 26,6 C 32,0 C 86 % 1017,1 hPa 0,7 mm 9,3 km/h
W-SW (2 Bft)
- - 16,3 C 22,8 km/h
N (4 Bft)
Durchschnitt _ 20,2 C 23,0 C 67 % 1015,3 hPa #1,4 mm 2,9 km/h (1 Bft) O-NO - 13,6 C 3,7 km/h (1 Bft)